createdAt,value
2022-12-27T00:01:33.267Z,1.10
2022-12-27T00:04:00.945Z,1.10
2022-12-27T00:06:30.035Z,1.10
2022-12-27T00:08:57.707Z,1.00
2022-12-27T00:11:26.081Z,1.10
2022-12-27T00:13:53.799Z,0.80
2022-12-27T00:16:21.989Z,1.00
2022-12-27T00:18:49.789Z,1.10
2022-12-27T00:21:17.919Z,1.00
2022-12-27T00:23:48.297Z,1.00
2022-12-27T00:26:16.397Z,1.07
2022-12-27T00:28:44.137Z,0.90
2022-12-27T00:31:11.913Z,1.10
2022-12-27T00:33:40.095Z,0.93
2022-12-27T00:36:09.112Z,1.10
2022-12-27T00:38:37.020Z,1.20
2022-12-27T00:41:06.164Z,1.00
2022-12-27T00:43:33.857Z,1.00
2022-12-27T00:46:01.819Z,1.00
2022-12-27T00:48:29.276Z,0.80
2022-12-27T00:50:58.668Z,1.20
2022-12-27T00:53:26.717Z,0.80
2022-12-27T00:55:54.432Z,0.90
2022-12-27T00:58:23.241Z,0.90
2022-12-27T01:00:50.994Z,0.90
2022-12-27T01:03:19.689Z,0.90
2022-12-27T01:05:47.322Z,0.93
2022-12-27T01:08:14.800Z,0.90
2022-12-27T01:10:42.441Z,0.90
2022-12-27T01:13:09.937Z,0.90
2022-12-27T01:15:41.849Z,0.80
2022-12-27T01:18:09.269Z,0.87
2022-12-27T01:20:38.451Z,1.03
2022-12-27T01:23:06.000Z,0.87
2022-12-27T01:25:33.432Z,0.93
2022-12-27T01:28:00.837Z,1.00
2022-12-27T01:30:28.259Z,0.93
2022-12-27T01:32:57.090Z,0.80
2022-12-27T01:35:24.511Z,0.90
2022-12-27T01:37:52.212Z,1.00
2022-12-27T01:40:19.883Z,0.97
2022-12-27T01:42:52.360Z,0.90
2022-12-27T01:45:20.752Z,0.90
2022-12-27T01:47:51.216Z,1.00
2022-12-27T01:50:22.705Z,0.90
2022-12-27T01:52:53.178Z,0.90
2022-12-27T01:55:23.247Z,0.87
2022-12-27T01:57:51.449Z,0.83
2022-12-27T02:00:19.004Z,0.93
2022-12-27T02:02:46.657Z,1.10
2022-12-27T02:05:15.772Z,0.90
2022-12-27T02:07:48.773Z,0.80
2022-12-27T02:10:17.096Z,0.90
2022-12-27T02:12:44.629Z,1.00
2022-12-27T02:15:12.137Z,0.90
2022-12-27T02:17:39.633Z,1.70
2022-12-27T02:20:10.253Z,0.90
2022-12-27T02:23:12.925Z,0.90
2022-12-27T02:25:52.495Z,0.90
2022-12-27T02:28:26.678Z,1.77
2022-12-27T02:30:59.558Z,1.00
2022-12-27T02:33:30.582Z,0.90
2022-12-27T02:36:00.190Z,1.10
2022-12-27T02:38:30.315Z,1.00
2022-12-27T02:41:16.184Z,0.90
2022-12-27T02:44:01.073Z,1.10
2022-12-27T02:46:48.922Z,1.10
2022-12-27T02:49:43.926Z,1.00
2022-12-27T02:52:34.459Z,1.10
2022-12-27T02:55:11.647Z,1.00
2022-12-27T02:57:42.342Z,0.87
2022-12-27T03:00:29.237Z,1.20
2022-12-27T03:03:24.656Z,0.90
2022-12-27T03:06:43.217Z,1.10
2022-12-27T03:09:42.936Z,1.20
2022-12-27T03:12:30.390Z,1.10
2022-12-27T03:15:18.855Z,1.07
2022-12-27T03:17:50.551Z,1.00
2022-12-27T03:20:37.768Z,1.20
2022-12-27T03:23:23.163Z,1.20
2022-12-27T03:25:51.348Z,1.00
2022-12-27T03:28:38.430Z,1.00
2022-12-27T03:31:26.947Z,0.93
2022-12-27T03:34:04.358Z,1.03
2022-12-27T03:36:52.146Z,0.83
2022-12-27T03:39:26.038Z,1.10
2022-12-27T03:42:12.892Z,1.30
2022-12-27T03:44:40.599Z,1.20
2022-12-27T03:47:12.652Z,1.30
2022-12-27T03:49:42.183Z,1.17
2022-12-27T03:52:12.366Z,1.20
2022-12-27T03:54:40.846Z,1.40
2022-12-27T03:57:09.873Z,1.50
2022-12-27T03:59:37.276Z,1.40
2022-12-27T04:02:04.937Z,1.40
2022-12-27T04:04:32.511Z,1.30
2022-12-27T04:06:59.948Z,1.17
2022-12-27T04:09:46.330Z,1.00
2022-12-27T04:12:31.221Z,0.97
2022-12-27T04:15:15.981Z,1.00
2022-12-27T04:18:01.538Z,1.10
2022-12-27T04:20:46.348Z,1.00
2022-12-27T04:23:31.522Z,1.10
2022-12-27T04:26:17.711Z,1.20
2022-12-27T04:29:02.418Z,1.30
2022-12-27T04:31:47.530Z,1.00
2022-12-27T04:34:33.195Z,1.27
2022-12-27T04:37:00.696Z,1.00
2022-12-27T04:39:28.226Z,1.17
2022-12-27T04:42:14.489Z,1.30
2022-12-27T04:44:58.533Z,1.20
2022-12-27T04:47:46.933Z,1.00
2022-12-27T04:50:37.201Z,0.90
2022-12-27T04:53:26.276Z,1.00
2022-12-27T04:55:53.718Z,1.10
2022-12-27T04:58:24.028Z,1.07
2022-12-27T05:01:14.135Z,1.33
2022-12-27T05:03:42.547Z,1.50
2022-12-27T05:06:10.148Z,1.30
2022-12-27T05:09:00.973Z,1.60
2022-12-27T05:11:46.263Z,2.60
2022-12-27T05:14:15.793Z,2.67
2022-12-27T05:16:43.977Z,2.27
2022-12-27T05:19:12.391Z,2.83
2022-12-27T05:22:03.151Z,3.37
2022-12-27T05:24:48.379Z,5.47
2022-12-27T05:27:15.838Z,6.70
2022-12-27T05:29:44.641Z,5.13
2022-12-27T05:32:13.632Z,4.23
2022-12-27T05:34:41.455Z,3.83
2022-12-27T05:37:08.862Z,2.63
2022-12-27T05:39:36.276Z,2.00
2022-12-27T05:42:04.177Z,1.80
2022-12-27T05:44:31.591Z,1.90
2022-12-27T05:47:00.445Z,2.03
2022-12-27T05:49:27.894Z,2.27
2022-12-27T05:51:55.324Z,2.03
2022-12-27T05:54:22.767Z,1.90
2022-12-27T05:56:50.196Z,1.80
2022-12-27T05:59:17.594Z,1.63
2022-12-27T06:01:45.260Z,1.70
2022-12-27T06:04:14.291Z,1.70
2022-12-27T06:06:41.759Z,1.90
2022-12-27T06:09:09.251Z,1.53
2022-12-27T06:11:36.680Z,1.40
2022-12-27T06:14:04.140Z,1.50
2022-12-27T06:16:31.647Z,1.30
2022-12-27T06:18:59.136Z,2.20
2022-12-27T06:21:27.928Z,4.10
2022-12-27T06:23:55.421Z,2.40
2022-12-27T06:26:24.255Z,2.10
2022-12-27T06:28:52.249Z,1.80
2022-12-27T06:31:20.896Z,1.80
2022-12-27T06:33:49.039Z,1.90
2022-12-27T06:36:17.447Z,1.57
2022-12-27T06:38:46.268Z,1.60
2022-12-27T06:41:14.481Z,1.60
2022-12-27T06:43:42.395Z,1.57
2022-12-27T06:46:17.035Z,1.33
2022-12-27T06:48:46.051Z,2.60
2022-12-27T06:51:13.841Z,2.43
2022-12-27T06:53:41.664Z,2.63
2022-12-27T06:56:11.671Z,2.20
2022-12-27T06:58:39.390Z,1.70
2022-12-27T07:01:09.847Z,1.40
2022-12-27T07:03:38.353Z,1.50
2022-12-27T07:06:06.476Z,2.57
2022-12-27T07:08:34.253Z,1.43
2022-12-27T07:11:02.050Z,1.50
2022-12-27T07:13:33.976Z,1.30
2022-12-27T07:16:01.520Z,1.57
2022-12-27T07:18:28.960Z,2.83
2022-12-27T07:20:56.550Z,3.67
2022-12-27T07:23:23.987Z,2.83
2022-12-27T07:25:51.464Z,2.50
2022-12-27T07:28:18.909Z,2.00
2022-12-27T07:30:47.667Z,2.10
2022-12-27T07:33:15.127Z,2.10
2022-12-27T07:35:45.207Z,1.90
2022-12-27T07:38:12.914Z,1.80
2022-12-27T07:40:40.419Z,1.50
2022-12-27T07:43:07.885Z,1.70
2022-12-27T07:45:35.370Z,1.73
2022-12-27T07:48:04.517Z,1.67
2022-12-27T07:50:31.991Z,1.60
2022-12-27T07:52:59.501Z,1.77
2022-12-27T07:55:26.921Z,1.40
2022-12-27T07:57:54.361Z,1.63
2022-12-27T08:00:21.825Z,1.60
2022-12-27T08:02:49.297Z,1.50
2022-12-27T08:05:21.466Z,1.60
2022-12-27T08:07:52.149Z,2.10
2022-12-27T08:10:19.728Z,2.50
2022-12-27T08:12:47.937Z,2.67
2022-12-27T08:15:15.713Z,2.47
2022-12-27T08:17:43.164Z,2.70
2022-12-27T08:20:14.251Z,2.60
2022-12-27T08:22:43.039Z,2.60
2022-12-27T08:25:11.175Z,1.90
2022-12-27T08:27:38.598Z,1.80
2022-12-27T08:30:06.674Z,1.50
2022-12-27T08:32:34.090Z,1.83
2022-12-27T08:35:25.203Z,1.47
2022-12-27T08:37:50.299Z,1.20
2022-12-27T08:40:17.851Z,1.40
2022-12-27T08:42:45.319Z,1.20
2022-12-27T08:45:12.970Z,1.40
2022-12-27T08:47:40.676Z,1.10
2022-12-27T08:50:08.828Z,1.20
2022-12-27T08:52:36.332Z,1.20
2022-12-27T08:55:05.501Z,1.30
2022-12-27T08:57:32.999Z,0.90
2022-12-27T09:00:00.486Z,1.20
2022-12-27T09:02:27.990Z,1.30
2022-12-27T09:04:55.475Z,1.30
2022-12-27T09:07:22.981Z,1.03
2022-12-27T09:09:50.450Z,1.03
2022-12-27T09:12:19.260Z,1.40
2022-12-27T09:14:46.683Z,1.20
2022-12-27T09:17:14.116Z,1.20
2022-12-27T09:19:41.585Z,1.30
2022-12-27T09:22:09.090Z,1.30
2022-12-27T09:24:36.562Z,1.10
2022-12-27T09:27:04.240Z,1.00
2022-12-27T09:29:33.038Z,1.00
2022-12-27T09:32:00.516Z,1.10
2022-12-27T09:34:27.969Z,1.10
2022-12-27T09:36:55.459Z,1.03
2022-12-27T09:39:22.885Z,1.20
2022-12-27T09:44:47.059Z,1.20
2022-12-27T09:47:17.815Z,1.00
2022-12-27T09:49:46.748Z,1.10
2022-12-27T09:52:16.421Z,1.43
2022-12-27T09:54:51.521Z,1.07
2022-12-27T09:57:22.223Z,1.10
2022-12-27T09:59:53.680Z,1.00
2022-12-27T10:02:22.730Z,1.10
2022-12-27T10:05:19.155Z,1.30
2022-12-27T10:07:44.215Z,1.53
2022-12-27T10:10:16.283Z,1.20
2022-12-27T10:12:55.065Z,1.17
2022-12-27T10:15:29.355Z,1.30
2022-12-27T10:18:03.272Z,1.10
2022-12-27T10:20:34.134Z,0.90
2022-12-27T10:23:06.369Z,1.10
2022-12-27T10:25:35.024Z,0.97
2022-12-27T10:28:10.241Z,1.17
2022-12-27T10:30:40.496Z,1.30
2022-12-27T10:33:09.864Z,1.70
2022-12-27T10:35:37.531Z,1.10
2022-12-27T10:38:07.623Z,1.10
2022-12-27T10:40:38.874Z,0.90
2022-12-27T10:43:08.324Z,1.20
2022-12-27T10:45:39.212Z,1.00
2022-12-27T10:48:21.206Z,1.00
2022-12-27T10:50:50.785Z,0.80
2022-12-27T10:53:29.169Z,1.00
2022-12-27T10:56:06.681Z,1.00
2022-12-27T10:58:38.160Z,1.03
2022-12-27T11:01:05.774Z,0.80
2022-12-27T11:03:34.576Z,0.90
2022-12-27T11:06:02.909Z,0.90
2022-12-27T11:08:31.035Z,1.30
2022-12-27T11:11:12.537Z,1.10
2022-12-27T11:13:40.030Z,1.00
2022-12-27T11:16:13.945Z,0.93
2022-12-27T11:18:45.247Z,1.03
2022-12-27T11:21:21.345Z,1.00
2022-12-27T11:23:54.682Z,0.87
2022-12-27T11:26:23.555Z,0.83
2022-12-27T11:28:54.691Z,0.80
2022-12-27T11:31:37.369Z,1.20
2022-12-27T11:34:08.286Z,1.00
2022-12-27T11:36:37.822Z,1.07
2022-12-27T11:39:05.558Z,1.00
2022-12-27T11:41:37.083Z,0.90
2022-12-27T11:44:10.329Z,0.80
2022-12-27T11:46:41.110Z,1.10
2022-12-27T11:49:13.015Z,0.90
2022-12-27T11:51:50.201Z,0.60
2022-12-27T11:54:25.193Z,0.90
2022-12-27T11:56:53.688Z,0.80
2022-12-27T11:59:27.070Z,1.60
2022-12-27T12:02:13.273Z,1.30
2022-12-27T12:04:50.936Z,1.27
2022-12-27T12:07:23.968Z,0.90
2022-12-27T12:10:01.033Z,1.10
2022-12-27T12:12:40.025Z,1.83
2022-12-27T12:15:19.559Z,1.63
2022-12-27T12:18:02.033Z,1.40
2022-12-27T12:20:50.994Z,1.00
2022-12-27T12:23:22.785Z,0.90
2022-12-27T12:26:07.466Z,0.90
2022-12-27T12:28:58.739Z,1.00
2022-12-27T12:31:34.678Z,0.90
2022-12-27T12:34:11.021Z,1.10
2022-12-27T12:36:52.531Z,0.80
2022-12-27T12:39:24.373Z,0.60
2022-12-27T12:42:00.290Z,0.80
2022-12-27T12:44:41.914Z,0.70
2022-12-27T12:47:12.572Z,1.37
2022-12-27T12:49:45.853Z,1.80
2022-12-27T12:52:26.598Z,1.23
2022-12-27T12:55:14.513Z,0.90
2022-12-27T12:57:46.353Z,0.90
2022-12-27T13:00:27.459Z,0.90
2022-12-27T13:03:28.047Z,1.00
2022-12-27T13:06:01.955Z,1.10
2022-12-27T13:08:32.299Z,0.90
2022-12-27T13:11:14.275Z,1.20
2022-12-27T13:13:48.949Z,0.97
2022-12-27T13:16:19.822Z,0.83
2022-12-27T13:18:50.920Z,0.87
2022-12-27T13:21:23.509Z,1.40
2022-12-27T13:24:00.526Z,0.90
2022-12-27T13:26:32.581Z,0.90
2022-12-27T13:29:07.328Z,1.00
2022-12-27T13:31:38.429Z,0.70
2022-12-27T13:34:12.970Z,0.70
2022-12-27T13:36:45.668Z,0.90
2022-12-27T13:39:25.958Z,0.90
2022-12-27T13:41:58.986Z,0.90
2022-12-27T13:44:35.253Z,1.00
2022-12-27T13:47:15.800Z,0.80
2022-12-27T13:49:52.840Z,0.97
2022-12-27T13:52:29.856Z,0.90
2022-12-27T13:55:16.804Z,0.80
2022-12-27T13:57:54.433Z,1.00
2022-12-27T14:00:22.492Z,0.90
2022-12-27T14:03:04.837Z,0.90
2022-12-27T14:05:51.027Z,0.80
2022-12-27T14:08:22.757Z,1.00
2022-12-27T14:10:58.658Z,1.17
2022-12-27T14:13:32.616Z,1.10
2022-12-27T14:16:15.854Z,1.00
2022-12-27T14:18:51.380Z,0.87
2022-12-27T14:21:26.761Z,0.90
2022-12-27T14:23:58.155Z,1.10
2022-12-27T14:26:47.059Z,1.00
2022-12-27T14:29:40.424Z,1.10
2022-12-27T14:32:19.995Z,0.90
2022-12-27T14:35:04.106Z,0.93
2022-12-27T14:37:53.488Z,1.60
2022-12-27T14:40:38.702Z,1.20
2022-12-27T14:43:21.039Z,1.30
2022-12-27T14:46:03.454Z,1.27
2022-12-27T14:48:57.909Z,1.40
2022-12-27T14:52:00.031Z,1.10
2022-12-27T14:54:44.417Z,1.20
2022-12-27T14:57:16.379Z,1.10
2022-12-27T14:59:49.939Z,1.20
2022-12-27T15:02:26.109Z,1.20
2022-12-27T15:04:59.268Z,1.00
2022-12-27T15:07:36.351Z,1.10
2022-12-27T15:10:07.224Z,1.30
2022-12-27T15:12:37.104Z,1.30
2022-12-27T15:15:11.420Z,1.20
2022-12-27T15:17:47.075Z,1.23
2022-12-27T15:20:25.836Z,1.20
2022-12-27T15:23:00.114Z,1.20
2022-12-27T15:25:31.570Z,1.13
2022-12-27T15:28:06.090Z,1.37
2022-12-27T15:30:41.716Z,1.40
2022-12-27T15:33:14.793Z,1.40
2022-12-27T15:35:50.076Z,1.30
2022-12-27T15:38:19.443Z,1.70
2022-12-27T15:40:51.956Z,2.10
2022-12-27T15:43:33.701Z,1.70
2022-12-27T15:46:09.058Z,7.30
2022-12-27T15:48:53.658Z,40.17
2022-12-27T15:51:28.045Z,26.13
2022-12-27T15:54:13.118Z,22.50
2022-12-27T15:57:01.408Z,14.10
2022-12-27T15:59:45.498Z,10.67
2022-12-27T16:02:25.356Z,5.63
2022-12-27T16:04:54.023Z,4.10
2022-12-27T16:07:37.849Z,3.30
2022-12-27T16:10:20.200Z,2.77
2022-12-27T16:12:48.803Z,3.00
2022-12-27T16:15:34.730Z,2.13
2022-12-27T16:18:04.145Z,2.80
2022-12-27T16:20:32.633Z,2.90
2022-12-27T16:23:02.066Z,3.20
2022-12-27T16:25:32.099Z,3.10
2022-12-27T16:28:04.678Z,3.60
2022-12-27T16:30:36.596Z,3.80
2022-12-27T16:33:05.562Z,3.20
2022-12-27T16:35:33.484Z,2.83
2022-12-27T16:38:03.753Z,2.90
2022-12-27T16:40:39.367Z,2.87
2022-12-27T16:43:27.570Z,2.80
2022-12-27T16:45:58.752Z,3.13
2022-12-27T16:48:31.630Z,3.03
2022-12-27T16:51:04.389Z,3.00
2022-12-27T16:53:46.705Z,3.10
2022-12-27T16:56:22.004Z,3.20
2022-12-27T16:58:49.541Z,3.80
2022-12-27T17:01:30.400Z,3.40
2022-12-27T17:03:59.465Z,3.63
2022-12-27T17:06:45.552Z,4.30
2022-12-27T17:09:33.916Z,4.17
2022-12-27T17:12:13.813Z,4.13
2022-12-27T17:14:44.139Z,4.30
2022-12-27T17:17:16.694Z,3.97
2022-12-27T17:19:48.445Z,3.77
2022-12-27T17:22:17.325Z,3.40
2022-12-27T17:24:45.295Z,3.50
2022-12-27T17:27:16.905Z,3.30
2022-12-27T17:29:55.377Z,4.10
2022-12-27T17:32:28.331Z,4.00
2022-12-27T17:35:04.696Z,4.50
2022-12-27T17:37:35.871Z,4.40
2022-12-27T17:40:10.403Z,4.70
2022-12-27T17:42:57.777Z,4.80
2022-12-27T17:45:33.820Z,5.00
2022-12-27T17:48:09.521Z,5.70
2022-12-27T17:50:41.396Z,5.40
2022-12-27T17:53:36.875Z,5.43
2022-12-27T17:56:32.987Z,4.87
2022-12-27T17:59:03.013Z,4.87
2022-12-27T18:01:30.922Z,4.40
2022-12-27T18:03:58.539Z,4.63
2022-12-27T18:06:27.379Z,4.37
2022-12-27T18:08:54.961Z,5.30
2022-12-27T18:11:27.893Z,9.80
2022-12-27T18:13:58.844Z,5.87
2022-12-27T18:16:30.974Z,4.93
2022-12-27T18:18:59.969Z,5.73
2022-12-27T18:21:29.977Z,6.30
2022-12-27T18:23:57.842Z,6.17
2022-12-27T18:26:32.322Z,6.70
2022-12-27T18:28:59.933Z,6.17
2022-12-27T18:31:29.641Z,7.37
2022-12-27T18:33:58.669Z,6.23
2022-12-27T18:36:28.495Z,5.10
2022-12-27T18:38:59.458Z,4.87
2022-12-27T18:41:27.136Z,5.33
2022-12-27T18:43:57.907Z,6.33
2022-12-27T18:46:27.723Z,3.70
2022-12-27T18:48:55.256Z,4.13
2022-12-27T18:51:29.509Z,4.47
2022-12-27T18:53:58.330Z,3.87
2022-12-27T18:56:29.095Z,4.93
2022-12-27T18:58:59.965Z,5.90
2022-12-27T19:01:30.636Z,7.17
2022-12-27T19:04:13.029Z,7.30
2022-12-27T19:06:40.814Z,8.17
2022-12-27T19:09:14.348Z,8.07
2022-12-27T19:11:42.414Z,7.00
2022-12-27T19:14:14.684Z,7.23
2022-12-27T19:16:49.059Z,7.07
2022-12-27T19:19:19.409Z,6.60
2022-12-27T19:21:46.997Z,5.53
2022-12-27T19:24:30.264Z,4.50
2022-12-27T19:27:00.568Z,4.40
2022-12-27T19:29:29.351Z,3.83
2022-12-27T19:31:58.062Z,4.03
2022-12-27T19:34:26.979Z,4.13
2022-12-27T19:36:55.349Z,5.23
2022-12-27T19:39:25.850Z,5.90
2022-12-27T19:41:53.635Z,5.13
2022-12-27T19:44:28.979Z,4.73
2022-12-27T19:46:56.528Z,4.63
2022-12-27T19:49:42.194Z,4.10
2022-12-27T19:52:12.497Z,4.67
2022-12-27T19:54:41.292Z,4.00
2022-12-27T19:57:11.592Z,4.40
2022-12-27T19:59:39.087Z,4.43
2022-12-27T20:02:06.609Z,4.37
2022-12-27T20:04:34.185Z,4.23
2022-12-27T20:07:02.154Z,4.40
2022-12-27T20:09:29.849Z,4.30
2022-12-27T20:11:58.704Z,5.13
2022-12-27T20:14:26.242Z,6.17
2022-12-27T20:16:53.772Z,5.60
2022-12-27T20:19:23.654Z,4.60
2022-12-27T20:21:51.083Z,4.03
2022-12-27T20:24:18.516Z,4.43
2022-12-27T20:26:45.935Z,4.50
2022-12-27T20:29:15.146Z,4.60
2022-12-27T20:31:45.422Z,4.57
2022-12-27T20:34:13.099Z,4.37
2022-12-27T20:36:41.529Z,4.10
2022-12-27T20:39:09.535Z,4.40
2022-12-27T20:41:37.264Z,4.40
2022-12-27T20:44:04.995Z,4.53
2022-12-27T20:46:33.762Z,4.27
2022-12-27T20:49:01.914Z,4.77
2022-12-27T20:51:31.588Z,4.40
2022-12-27T20:53:59.945Z,4.10
2022-12-27T20:56:27.699Z,4.17
2022-12-27T20:58:55.559Z,3.97
2022-12-27T21:01:23.893Z,3.80
2022-12-27T21:03:52.972Z,4.17
2022-12-27T21:06:21.475Z,4.00
2022-12-27T21:08:56.245Z,3.87
2022-12-27T21:11:26.718Z,3.87
2022-12-27T21:13:54.197Z,4.10
2022-12-27T21:16:22.683Z,3.90
2022-12-27T21:18:50.215Z,4.07
2022-12-27T21:21:20.183Z,3.73
2022-12-27T21:23:48.122Z,4.30
2022-12-27T21:26:16.486Z,3.90
2022-12-27T21:28:44.030Z,4.20
2022-12-27T21:31:12.325Z,4.47
2022-12-27T21:33:39.959Z,4.07
2022-12-27T21:36:08.653Z,4.10
2022-12-27T21:38:38.028Z,4.37
2022-12-27T21:41:06.616Z,4.20
2022-12-27T21:43:34.483Z,4.20
2022-12-27T21:46:06.224Z,5.10
2022-12-27T21:48:33.744Z,5.23
2022-12-27T21:51:04.722Z,5.87
2022-12-27T21:53:32.173Z,5.70
2022-12-27T21:56:01.576Z,6.20
2022-12-27T21:58:30.213Z,5.57
2022-12-27T22:01:08.136Z,5.53
2022-12-27T22:03:37.293Z,5.50
2022-12-27T22:06:09.839Z,5.37
2022-12-27T22:08:37.285Z,4.80
2022-12-27T22:11:06.181Z,4.30
2022-12-27T22:13:33.674Z,4.10
2022-12-27T22:16:02.208Z,4.63
2022-12-27T22:18:31.619Z,5.10
2022-12-27T22:21:00.267Z,4.40
2022-12-27T22:23:30.416Z,4.13
2022-12-27T22:25:57.923Z,4.80
2022-12-27T22:28:26.924Z,4.50
2022-12-27T22:30:54.515Z,4.00
2022-12-27T22:33:22.009Z,4.23
2022-12-27T22:35:49.504Z,4.23
2022-12-27T22:38:16.963Z,4.73
2022-12-27T22:40:47.018Z,4.30
2022-12-27T22:43:14.909Z,3.93
2022-12-27T22:45:47.603Z,4.37
2022-12-27T22:48:17.834Z,3.53
2022-12-27T22:50:45.260Z,3.63
2022-12-27T22:53:13.037Z,4.03
2022-12-27T22:55:41.051Z,4.00
2022-12-27T22:58:08.582Z,3.40
2022-12-27T23:00:36.032Z,3.67
2022-12-27T23:03:04.963Z,3.87
2022-12-27T23:05:32.459Z,3.50
2022-12-27T23:08:03.460Z,4.00
2022-12-27T23:10:31.508Z,3.73
2022-12-27T23:12:58.975Z,3.70
2022-12-27T23:15:26.568Z,3.80
2022-12-27T23:17:54.015Z,3.77
2022-12-27T23:20:22.791Z,3.40
2022-12-27T23:22:50.212Z,3.90
2022-12-27T23:25:17.652Z,3.50
2022-12-27T23:27:45.095Z,3.17
2022-12-27T23:30:13.426Z,3.40
2022-12-27T23:32:40.883Z,3.27
2022-12-27T23:35:08.712Z,3.20
2022-12-27T23:37:37.541Z,3.67
2022-12-27T23:40:05.462Z,3.20
2022-12-27T23:42:32.949Z,3.87
2022-12-27T23:45:00.368Z,3.47
2022-12-27T23:47:28.170Z,3.80
2022-12-27T23:49:55.576Z,3.70
2022-12-27T23:52:23.035Z,3.60
2022-12-27T23:54:51.883Z,3.43
2022-12-27T23:57:20.097Z,3.20
2022-12-27T23:59:51.175Z,3.43
